sensor_id;sensor_type;location;lat;lon;timestamp;P1;durP1;ratioP1;P2;durP2;ratioP2
71655;SDS011;59497;48.798;8.816;2022-07-25T00:02:10;9.60;;;8.23;;
71655;SDS011;59497;48.798;8.816;2022-07-25T00:04:35;10.90;;;8.67;;
71655;SDS011;59497;48.798;8.816;2022-07-25T00:07:00;10.33;;;8.97;;
71655;SDS011;59497;48.798;8.816;2022-07-25T00:09:25;11.25;;;8.85;;
71655;SDS011;59497;48.798;8.816;2022-07-25T00:11:50;10.20;;;8.80;;
71655;SDS011;59497;48.798;8.816;2022-07-25T00:14:15;10.70;;;8.50;;
71655;SDS011;59497;48.798;8.816;2022-07-25T00:16:41;9.50;;;8.10;;
71655;SDS011;59497;48.798;8.816;2022-07-25T00:19:06;9.53;;;8.53;;
71655;SDS011;59497;48.798;8.816;2022-07-25T00:21:31;10.00;;;9.00;;
71655;SDS011;59497;48.798;8.816;2022-07-25T00:23:56;10.77;;;8.40;;
71655;SDS011;59497;48.798;8.816;2022-07-25T00:26:21;11.10;;;8.90;;
71655;SDS011;59497;48.798;8.816;2022-07-25T00:28:47;9.30;;;8.37;;
71655;SDS011;59497;48.798;8.816;2022-07-25T00:31:12;9.70;;;8.57;;
71655;SDS011;59497;48.798;8.816;2022-07-25T00:33:37;9.33;;;8.43;;
71655;SDS011;59497;48.798;8.816;2022-07-25T00:36:04;9.70;;;8.55;;
71655;SDS011;59497;48.798;8.816;2022-07-25T00:38:29;9.73;;;8.73;;
71655;SDS011;59497;48.798;8.816;2022-07-25T00:40:54;9.75;;;8.75;;
71655;SDS011;59497;48.798;8.816;2022-07-25T00:43:19;10.53;;;9.27;;
71655;SDS011;59497;48.798;8.816;2022-07-25T00:45:44;11.83;;;8.60;;
71655;SDS011;59497;48.798;8.816;2022-07-25T00:48:10;10.87;;;9.33;;
71655;SDS011;59497;48.798;8.816;2022-07-25T00:50:35;11.33;;;9.10;;
71655;SDS011;59497;48.798;8.816;2022-07-25T00:53:00;11.25;;;9.15;;
71655;SDS011;59497;48.798;8.816;2022-07-25T00:55:26;10.43;;;9.10;;
71655;SDS011;59497;48.798;8.816;2022-07-25T00:57:51;9.47;;;8.50;;
71655;SDS011;59497;48.798;8.816;2022-07-25T01:00:16;10.80;;;9.70;;
71655;SDS011;59497;48.798;8.816;2022-07-25T01:02:42;11.47;;;9.83;;
71655;SDS011;59497;48.798;8.816;2022-07-25T01:05:07;11.10;;;9.48;;
71655;SDS011;59497;48.798;8.816;2022-07-25T01:07:33;12.00;;;9.90;;
71655;SDS011;59497;48.798;8.816;2022-07-25T01:09:58;12.02;;;9.32;;
71655;SDS011;59497;48.798;8.816;2022-07-25T01:12:24;11.63;;;9.60;;
71655;SDS011;59497;48.798;8.816;2022-07-25T01:14:49;10.33;;;9.23;;
71655;SDS011;59497;48.798;8.816;2022-07-25T01:17:14;12.53;;;10.33;;
71655;SDS011;59497;48.798;8.816;2022-07-25T01:19:40;12.43;;;9.48;;
71655;SDS011;59497;48.798;8.816;2022-07-25T01:22:05;10.63;;;9.27;;
71655;SDS011;59497;48.798;8.816;2022-07-25T01:24:31;11.93;;;10.30;;
71655;SDS011;59497;48.798;8.816;2022-07-25T01:26:57;12.73;;;9.85;;
71655;SDS011;59497;48.798;8.816;2022-07-25T01:29:22;11.65;;;9.35;;
71655;SDS011;59497;48.798;8.816;2022-07-25T01:31:47;11.65;;;10.45;;
71655;SDS011;59497;48.798;8.816;2022-07-25T01:34:13;10.03;;;9.03;;
71655;SDS011;59497;48.798;8.816;2022-07-25T01:36:38;12.00;;;10.65;;
71655;SDS011;59497;48.798;8.816;2022-07-25T01:39:03;12.00;;;10.07;;
71655;SDS011;59497;48.798;8.816;2022-07-25T01:41:28;14.93;;;10.03;;
71655;SDS011;59497;48.798;8.816;2022-07-25T01:43:53;11.20;;;9.90;;
71655;SDS011;59497;48.798;8.816;2022-07-25T01:46:18;11.15;;;9.95;;
71655;SDS011;59497;48.798;8.816;2022-07-25T01:48:44;11.73;;;10.03;;
71655;SDS011;59497;48.798;8.816;2022-07-25T01:51:09;12.80;;;10.40;;
71655;SDS011;59497;48.798;8.816;2022-07-25T01:53:34;11.80;;;9.67;;
71655;SDS011;59497;48.798;8.816;2022-07-25T01:55:59;11.83;;;9.53;;
71655;SDS011;59497;48.798;8.816;2022-07-25T01:58:25;13.60;;;10.18;;
71655;SDS011;59497;48.798;8.816;2022-07-25T02:00:50;11.43;;;9.80;;
71655;SDS011;59497;48.798;8.816;2022-07-25T02:03:15;11.73;;;10.07;;
71655;SDS011;59497;48.798;8.816;2022-07-25T02:05:59;12.13;;;9.90;;
71655;SDS011;59497;48.798;8.816;2022-07-25T02:08:25;11.33;;;10.13;;
71655;SDS011;59497;48.798;8.816;2022-07-25T02:10:50;12.10;;;9.73;;
71655;SDS011;59497;48.798;8.816;2022-07-25T02:13:16;11.93;;;9.70;;
71655;SDS011;59497;48.798;8.816;2022-07-25T02:15:41;11.20;;;9.43;;
71655;SDS011;59497;48.798;8.816;2022-07-25T02:18:06;11.53;;;9.87;;
71655;SDS011;59497;48.798;8.816;2022-07-25T02:20:31;12.30;;;9.73;;
71655;SDS011;59497;48.798;8.816;2022-07-25T02:22:56;11.60;;;10.30;;
71655;SDS011;59497;48.798;8.816;2022-07-25T02:25:21;11.50;;;10.03;;
71655;SDS011;59497;48.798;8.816;2022-07-25T02:27:47;12.03;;;9.83;;
71655;SDS011;59497;48.798;8.816;2022-07-25T02:30:12;12.17;;;10.13;;
71655;SDS011;59497;48.798;8.816;2022-07-25T02:32:37;11.80;;;10.13;;
71655;SDS011;59497;48.798;8.816;2022-07-25T02:35:03;11.47;;;10.27;;
71655;SDS011;59497;48.798;8.816;2022-07-25T02:37:28;12.20;;;10.27;;
71655;SDS011;59497;48.798;8.816;2022-07-25T02:39:53;12.55;;;10.80;;
71655;SDS011;59497;48.798;8.816;2022-07-25T02:42:18;12.77;;;9.93;;
71655;SDS011;59497;48.798;8.816;2022-07-25T02:44:44;12.17;;;10.13;;
71655;SDS011;59497;48.798;8.816;2022-07-25T02:47:09;13.70;;;10.27;;
71655;SDS011;59497;48.798;8.816;2022-07-25T02:49:34;11.93;;;10.40;;
71655;SDS011;59497;48.798;8.816;2022-07-25T02:51:59;12.20;;;10.50;;
71655;SDS011;59497;48.798;8.816;2022-07-25T02:54:24;12.68;;;10.32;;
71655;SDS011;59497;48.798;8.816;2022-07-25T02:56:49;12.17;;;10.30;;
71655;SDS011;59497;48.798;8.816;2022-07-25T02:59:15;12.37;;;10.13;;
71655;SDS011;59497;48.798;8.816;2022-07-25T03:01:40;13.03;;;10.30;;
71655;SDS011;59497;48.798;8.816;2022-07-25T03:04:05;15.40;;;10.37;;
71655;SDS011;59497;48.798;8.816;2022-07-25T03:06:30;12.33;;;10.23;;
71655;SDS011;59497;48.798;8.816;2022-07-25T03:08:55;12.03;;;9.80;;
71655;SDS011;59497;48.798;8.816;2022-07-25T03:11:20;11.27;;;9.53;;
71655;SDS011;59497;48.798;8.816;2022-07-25T03:13:46;12.53;;;10.23;;
71655;SDS011;59497;48.798;8.816;2022-07-25T03:16:11;11.33;;;10.13;;
71655;SDS011;59497;48.798;8.816;2022-07-25T03:18:36;11.53;;;10.27;;
71655;SDS011;59497;48.798;8.816;2022-07-25T03:21:01;14.40;;;11.07;;
71655;SDS011;59497;48.798;8.816;2022-07-25T03:23:26;12.70;;;10.33;;
71655;SDS011;59497;48.798;8.816;2022-07-25T03:25:52;12.83;;;10.23;;
71655;SDS011;59497;48.798;8.816;2022-07-25T03:28:17;11.43;;;9.47;;
71655;SDS011;59497;48.798;8.816;2022-07-25T03:30:42;13.07;;;10.57;;
71655;SDS011;59497;48.798;8.816;2022-07-25T03:33:08;11.67;;;9.67;;
71655;SDS011;59497;48.798;8.816;2022-07-25T03:35:35;11.50;;;10.30;;
71655;SDS011;59497;48.798;8.816;2022-07-25T03:38:00;13.05;;;10.70;;
71655;SDS011;59497;48.798;8.816;2022-07-25T03:40:26;13.20;;;11.17;;
71655;SDS011;59497;48.798;8.816;2022-07-25T03:42:51;11.90;;;10.40;;
71655;SDS011;59497;48.798;8.816;2022-07-25T03:45:16;13.47;;;10.93;;
71655;SDS011;59497;48.798;8.816;2022-07-25T03:47:41;12.37;;;10.30;;
71655;SDS011;59497;48.798;8.816;2022-07-25T03:50:07;13.10;;;11.00;;
71655;SDS011;59497;48.798;8.816;2022-07-25T03:52:32;13.03;;;10.63;;
71655;SDS011;59497;48.798;8.816;2022-07-25T03:54:57;11.67;;;10.47;;
71655;SDS011;59497;48.798;8.816;2022-07-25T03:57:22;11.47;;;9.57;;
71655;SDS011;59497;48.798;8.816;2022-07-25T03:59:48;14.27;;;10.77;;
71655;SDS011;59497;48.798;8.816;2022-07-25T04:02:13;11.90;;;9.95;;
71655;SDS011;59497;48.798;8.816;2022-07-25T04:04:38;13.17;;;11.27;;
71655;SDS011;59497;48.798;8.816;2022-07-25T04:07:03;12.50;;;10.38;;
71655;SDS011;59497;48.798;8.816;2022-07-25T04:09:28;12.03;;;10.73;;
71655;SDS011;59497;48.798;8.816;2022-07-25T04:11:53;11.63;;;10.43;;
71655;SDS011;59497;48.798;8.816;2022-07-25T04:14:18;13.50;;;10.55;;
71655;SDS011;59497;48.798;8.816;2022-07-25T04:16:44;12.38;;;10.05;;
71655;SDS011;59497;48.798;8.816;2022-07-25T04:19:09;12.17;;;10.40;;
71655;SDS011;59497;48.798;8.816;2022-07-25T04:21:34;11.90;;;10.50;;
71655;SDS011;59497;48.798;8.816;2022-07-25T04:23:59;11.50;;;10.27;;
71655;SDS011;59497;48.798;8.816;2022-07-25T04:26:24;11.55;;;10.35;;
71655;SDS011;59497;48.798;8.816;2022-07-25T04:28:50;11.60;;;10.23;;
71655;SDS011;59497;48.798;8.816;2022-07-25T04:31:15;12.17;;;10.60;;
71655;SDS011;59497;48.798;8.816;2022-07-25T04:33:40;12.00;;;10.13;;
71655;SDS011;59497;48.798;8.816;2022-07-25T04:36:05;12.30;;;10.13;;
71655;SDS011;59497;48.798;8.816;2022-07-25T04:38:31;11.63;;;10.23;;
71655;SDS011;59497;48.798;8.816;2022-07-25T04:40:56;13.73;;;11.43;;
71655;SDS011;59497;48.798;8.816;2022-07-25T04:43:21;11.77;;;10.20;;
71655;SDS011;59497;48.798;8.816;2022-07-25T04:45:47;12.37;;;10.70;;
71655;SDS011;59497;48.798;8.816;2022-07-25T04:48:12;11.63;;;10.27;;
71655;SDS011;59497;48.798;8.816;2022-07-25T04:50:37;13.00;;;11.33;;
71655;SDS011;59497;48.798;8.816;2022-07-25T04:53:03;12.50;;;10.27;;
71655;SDS011;59497;48.798;8.816;2022-07-25T04:55:28;13.50;;;10.02;;
71655;SDS011;59497;48.798;8.816;2022-07-25T04:57:53;13.10;;;11.10;;
71655;SDS011;59497;48.798;8.816;2022-07-25T05:00:18;12.90;;;10.23;;
71655;SDS011;59497;48.798;8.816;2022-07-25T05:02:43;13.57;;;10.95;;
71655;SDS011;59497;48.798;8.816;2022-07-25T05:05:08;12.23;;;10.67;;
71655;SDS011;59497;48.798;8.816;2022-07-25T05:07:34;12.97;;;10.23;;
71655;SDS011;59497;48.798;8.816;2022-07-25T05:09:59;12.20;;;10.87;;
71655;SDS011;59497;48.798;8.816;2022-07-25T05:12:24;11.73;;;10.53;;
71655;SDS011;59497;48.798;8.816;2022-07-25T05:14:50;14.30;;;10.73;;
71655;SDS011;59497;48.798;8.816;2022-07-25T05:17:15;13.13;;;11.13;;
71655;SDS011;59497;48.798;8.816;2022-07-25T05:19:40;13.13;;;10.77;;
71655;SDS011;59497;48.798;8.816;2022-07-25T05:22:05;12.50;;;10.15;;
71655;SDS011;59497;48.798;8.816;2022-07-25T05:24:34;13.53;;;10.63;;
71655;SDS011;59497;48.798;8.816;2022-07-25T05:26:59;12.48;;;10.93;;
71655;SDS011;59497;48.798;8.816;2022-07-25T05:29:24;12.30;;;10.53;;
71655;SDS011;59497;48.798;8.816;2022-07-25T05:31:51;11.98;;;9.57;;
71655;SDS011;59497;48.798;8.816;2022-07-25T05:34:16;11.53;;;10.27;;
71655;SDS011;59497;48.798;8.816;2022-07-25T05:36:41;12.90;;;9.77;;
71655;SDS011;59497;48.798;8.816;2022-07-25T05:39:06;12.67;;;10.73;;
71655;SDS011;59497;48.798;8.816;2022-07-25T05:41:32;11.40;;;9.80;;
71655;SDS011;59497;48.798;8.816;2022-07-25T05:43:57;11.37;;;9.80;;
71655;SDS011;59497;48.798;8.816;2022-07-25T05:46:22;10.70;;;9.57;;
71655;SDS011;59497;48.798;8.816;2022-07-25T05:48:47;10.60;;;8.83;;
71655;SDS011;59497;48.798;8.816;2022-07-25T05:51:12;11.97;;;10.03;;
71655;SDS011;59497;48.798;8.816;2022-07-25T05:53:37;11.90;;;9.38;;
71655;SDS011;59497;48.798;8.816;2022-07-25T05:56:03;10.95;;;9.57;;
71655;SDS011;59497;48.798;8.816;2022-07-25T05:58:28;11.37;;;9.60;;
71655;SDS011;59497;48.798;8.816;2022-07-25T06:00:53;10.75;;;9.60;;
71655;SDS011;59497;48.798;8.816;2022-07-25T06:03:19;10.10;;;9.07;;
71655;SDS011;59497;48.798;8.816;2022-07-25T06:05:44;10.13;;;9.13;;
71655;SDS011;59497;48.798;8.816;2022-07-25T06:08:10;11.23;;;9.15;;
71655;SDS011;59497;48.798;8.816;2022-07-25T06:10:35;10.17;;;9.10;;
71655;SDS011;59497;48.798;8.816;2022-07-25T06:13:00;9.67;;;8.77;;
71655;SDS011;59497;48.798;8.816;2022-07-25T06:15:26;9.60;;;8.60;;
71655;SDS011;59497;48.798;8.816;2022-07-25T06:17:51;9.75;;;8.75;;
71655;SDS011;59497;48.798;8.816;2022-07-25T06:20:16;9.30;;;8.40;;
71655;SDS011;59497;48.798;8.816;2022-07-25T06:22:41;9.50;;;8.50;;
71655;SDS011;59497;48.798;8.816;2022-07-25T06:25:06;9.17;;;8.33;;
71655;SDS011;59497;48.798;8.816;2022-07-25T06:27:32;11.20;;;8.70;;
71655;SDS011;59497;48.798;8.816;2022-07-25T06:29:57;9.97;;;8.97;;
71655;SDS011;59497;48.798;8.816;2022-07-25T06:32:22;10.23;;;9.13;;
71655;SDS011;59497;48.798;8.816;2022-07-25T06:34:47;10.53;;;9.03;;
71655;SDS011;59497;48.798;8.816;2022-07-25T06:37:13;11.05;;;9.50;;
71655;SDS011;59497;48.798;8.816;2022-07-25T06:39:38;10.20;;;8.53;;
71655;SDS011;59497;48.798;8.816;2022-07-25T06:42:03;11.07;;;9.30;;
71655;SDS011;59497;48.798;8.816;2022-07-25T06:44:32;9.70;;;8.70;;
71655;SDS011;59497;48.798;8.816;2022-07-25T06:46:58;10.43;;;9.18;;
71655;SDS011;59497;48.798;8.816;2022-07-25T06:49:23;9.60;;;8.63;;
71655;SDS011;59497;48.798;8.816;2022-07-25T06:51:48;10.83;;;9.83;;
71655;SDS011;59497;48.798;8.816;2022-07-25T06:54:13;10.03;;;9.07;;
71655;SDS011;59497;48.798;8.816;2022-07-25T06:56:39;10.30;;;9.30;;
71655;SDS011;59497;48.798;8.816;2022-07-25T06:59:04;10.20;;;9.17;;
71655;SDS011;59497;48.798;8.816;2022-07-25T07:01:29;10.40;;;9.40;;
71655;SDS011;59497;48.798;8.816;2022-07-25T07:03:55;10.30;;;8.20;;
71655;SDS011;59497;48.798;8.816;2022-07-25T07:06:20;10.07;;;8.32;;
71655;SDS011;59497;48.798;8.816;2022-07-25T07:08:45;10.13;;;8.90;;
71655;SDS011;59497;48.798;8.816;2022-07-25T07:11:10;10.55;;;9.35;;
71655;SDS011;59497;48.798;8.816;2022-07-25T07:13:37;10.30;;;9.30;;
71655;SDS011;59497;48.798;8.816;2022-07-25T07:16:02;9.60;;;8.60;;
71655;SDS011;59497;48.798;8.816;2022-07-25T07:18:27;10.93;;;9.40;;
71655;SDS011;59497;48.798;8.816;2022-07-25T07:20:52;10.10;;;9.20;;
71655;SDS011;59497;48.798;8.816;2022-07-25T07:23:17;9.40;;;8.50;;
71655;SDS011;59497;48.798;8.816;2022-07-25T07:25:43;10.70;;;9.60;;
71655;SDS011;59497;48.798;8.816;2022-07-25T07:28:10;10.10;;;8.83;;
71655;SDS011;59497;48.798;8.816;2022-07-25T07:30:35;9.18;;;8.38;;
71655;SDS011;59497;48.798;8.816;2022-07-25T07:33:00;9.07;;;8.15;;
71655;SDS011;59497;48.798;8.816;2022-07-25T07:35:25;10.70;;;9.60;;
71655;SDS011;59497;48.798;8.816;2022-07-25T07:37:50;11.23;;;9.03;;
71655;SDS011;59497;48.798;8.816;2022-07-25T07:40:18;11.93;;;9.40;;
71655;SDS011;59497;48.798;8.816;2022-07-25T07:42:44;9.97;;;9.00;;
71655;SDS011;59497;48.798;8.816;2022-07-25T07:47:35;9.70;;;8.80;;
71655;SDS011;59497;48.798;8.816;2022-07-25T07:50:00;10.03;;;9.13;;
71655;SDS011;59497;48.798;8.816;2022-07-25T07:52:25;10.90;;;9.80;;
71655;SDS011;59497;48.798;8.816;2022-07-25T07:54:50;10.38;;;9.30;;
71655;SDS011;59497;48.798;8.816;2022-07-25T07:57:34;10.95;;;9.43;;
71655;SDS011;59497;48.798;8.816;2022-07-25T08:00:00;9.20;;;8.38;;
71655;SDS011;59497;48.798;8.816;2022-07-25T08:02:25;10.00;;;9.10;;
71655;SDS011;59497;48.798;8.816;2022-07-25T08:04:50;9.10;;;8.20;;
71655;SDS011;59497;48.798;8.816;2022-07-25T08:07:15;9.98;;;9.18;;
71655;SDS011;59497;48.798;8.816;2022-07-25T08:09:40;9.80;;;8.80;;
71655;SDS011;59497;48.798;8.816;2022-07-25T08:12:06;10.52;;;9.52;;
71655;SDS011;59497;48.798;8.816;2022-07-25T08:14:31;10.20;;;9.30;;
71655;SDS011;59497;48.798;8.816;2022-07-25T08:16:56;10.73;;;9.70;;
71655;SDS011;59497;48.798;8.816;2022-07-25T08:19:22;9.77;;;8.77;;
71655;SDS011;59497;48.798;8.816;2022-07-25T08:21:47;10.52;;;9.48;;
71655;SDS011;59497;48.798;8.816;2022-07-25T08:24:12;10.03;;;9.13;;
71655;SDS011;59497;48.798;8.816;2022-07-25T08:26:38;10.10;;;9.20;;
71655;SDS011;59497;48.798;8.816;2022-07-25T08:29:03;9.57;;;8.67;;
71655;SDS011;59497;48.798;8.816;2022-07-25T08:31:28;9.40;;;8.50;;
71655;SDS011;59497;48.798;8.816;2022-07-25T08:33:53;10.37;;;9.37;;
71655;SDS011;59497;48.798;8.816;2022-07-25T08:36:18;9.63;;;8.80;;
71655;SDS011;59497;48.798;8.816;2022-07-25T08:38:43;9.25;;;8.45;;
71655;SDS011;59497;48.798;8.816;2022-07-25T08:41:08;9.20;;;8.20;;
71655;SDS011;59497;48.798;8.816;2022-07-25T08:43:34;9.93;;;8.97;;
71655;SDS011;59497;48.798;8.816;2022-07-25T08:46:01;9.77;;;8.98;;
71655;SDS011;59497;48.798;8.816;2022-07-25T08:48:29;8.60;;;7.75;;
71655;SDS011;59497;48.798;8.816;2022-07-25T08:50:54;9.10;;;8.30;;
71655;SDS011;59497;48.798;8.816;2022-07-25T08:53:22;6.97;;;6.28;;
71655;SDS011;59497;48.798;8.816;2022-07-25T08:55:48;7.27;;;6.57;;
71655;SDS011;59497;48.798;8.816;2022-07-25T08:58:13;6.87;;;6.27;;
71655;SDS011;59497;48.798;8.816;2022-07-25T09:00:39;7.05;;;6.45;;
71655;SDS011;59497;48.798;8.816;2022-07-25T09:03:04;6.83;;;6.13;;
71655;SDS011;59497;48.798;8.816;2022-07-25T09:05:33;7.22;;;6.63;;
71655;SDS011;59497;48.798;8.816;2022-07-25T09:08:09;7.47;;;6.78;;
71655;SDS011;59497;48.798;8.816;2022-07-25T09:10:35;6.57;;;5.87;;
71655;SDS011;59497;48.798;8.816;2022-07-25T09:13:08;6.70;;;6.05;;
71655;SDS011;59497;48.798;8.816;2022-07-25T09:15:38;6.70;;;6.10;;
71655;SDS011;59497;48.798;8.816;2022-07-25T09:18:05;6.85;;;6.25;;
71655;SDS011;59497;48.798;8.816;2022-07-25T09:23:01;7.40;;;6.80;;
71655;SDS011;59497;48.798;8.816;2022-07-25T09:25:27;7.17;;;6.57;;
71655;SDS011;59497;48.798;8.816;2022-07-25T09:28:11;6.55;;;6.05;;
71655;SDS011;59497;48.798;8.816;2022-07-25T09:30:36;6.80;;;6.20;;
71655;SDS011;59497;48.798;8.816;2022-07-25T09:33:02;6.25;;;5.65;;
71655;SDS011;59497;48.798;8.816;2022-07-25T09:35:30;6.00;;;5.50;;
71655;SDS011;59497;48.798;8.816;2022-07-25T09:38:12;5.50;;;5.10;;
71655;SDS011;59497;48.798;8.816;2022-07-25T09:40:38;5.63;;;5.07;;
71655;SDS011;59497;48.798;8.816;2022-07-25T09:43:03;5.82;;;5.32;;
71655;SDS011;59497;48.798;8.816;2022-07-25T09:45:29;7.00;;;6.40;;
71655;SDS011;59497;48.798;8.816;2022-07-25T09:47:55;5.90;;;5.40;;
71655;SDS011;59497;48.798;8.816;2022-07-25T09:50:21;6.40;;;5.90;;
71655;SDS011;59497;48.798;8.816;2022-07-25T09:52:47;5.82;;;5.32;;
71655;SDS011;59497;48.798;8.816;2022-07-25T09:55:13;5.93;;;5.43;;
71655;SDS011;59497;48.798;8.816;2022-07-25T09:57:39;5.77;;;5.27;;
71655;SDS011;59497;48.798;8.816;2022-07-25T10:00:05;6.20;;;5.70;;
71655;SDS011;59497;48.798;8.816;2022-07-25T10:05:11;6.03;;;5.53;;
71655;SDS011;59497;48.798;8.816;2022-07-25T10:07:38;6.60;;;6.00;;
71655;SDS011;59497;48.798;8.816;2022-07-25T10:10:03;7.28;;;6.78;;
71655;SDS011;59497;48.798;8.816;2022-07-25T10:12:29;7.03;;;6.37;;
71655;SDS011;59497;48.798;8.816;2022-07-25T10:17:32;6.97;;;6.38;;
71655;SDS011;59497;48.798;8.816;2022-07-25T10:19:58;8.25;;;7.45;;
71655;SDS011;59497;48.798;8.816;2022-07-25T10:27:41;6.37;;;5.80;;
71655;SDS011;59497;48.798;8.816;2022-07-25T10:30:09;7.45;;;6.85;;
71655;SDS011;59497;48.798;8.816;2022-07-25T10:32:34;7.07;;;6.47;;
71655;SDS011;59497;48.798;8.816;2022-07-25T10:34:59;6.53;;;6.03;;
71655;SDS011;59497;48.798;8.816;2022-07-25T10:37:25;7.03;;;6.43;;
71655;SDS011;59497;48.798;8.816;2022-07-25T10:39:51;7.85;;;7.10;;
71655;SDS011;59497;48.798;8.816;2022-07-25T10:42:17;6.63;;;6.07;;
71655;SDS011;59497;48.798;8.816;2022-07-25T10:44:46;7.37;;;6.77;;
71655;SDS011;59497;48.798;8.816;2022-07-25T10:47:12;8.00;;;6.50;;
71655;SDS011;59497;48.798;8.816;2022-07-25T10:49:38;7.35;;;6.85;;
71655;SDS011;59497;48.798;8.816;2022-07-25T10:52:04;6.90;;;6.40;;
71655;SDS011;59497;48.798;8.816;2022-07-25T10:54:36;7.17;;;6.47;;
71655;SDS011;59497;48.798;8.816;2022-07-25T10:57:02;7.47;;;6.53;;
71655;SDS011;59497;48.798;8.816;2022-07-25T10:59:32;7.03;;;6.53;;
71655;SDS011;59497;48.798;8.816;2022-07-25T11:01:57;6.78;;;6.28;;
71655;SDS011;59497;48.798;8.816;2022-07-25T11:04:23;7.07;;;6.50;;
71655;SDS011;59497;48.798;8.816;2022-07-25T11:06:48;6.80;;;6.20;;
71655;SDS011;59497;48.798;8.816;2022-07-25T11:09:14;6.77;;;6.20;;
71655;SDS011;59497;48.798;8.816;2022-07-25T11:11:41;6.63;;;6.07;;
71655;SDS011;59497;48.798;8.816;2022-07-25T11:14:19;7.18;;;6.68;;
71655;SDS011;59497;48.798;8.816;2022-07-25T11:16:45;7.68;;;7.18;;
71655;SDS011;59497;48.798;8.816;2022-07-25T11:21:46;7.88;;;7.28;;
71655;SDS011;59497;48.798;8.816;2022-07-25T11:24:11;7.67;;;7.07;;
71655;SDS011;59497;48.798;8.816;2022-07-25T11:26:43;7.47;;;6.93;;
71655;SDS011;59497;48.798;8.816;2022-07-25T11:29:16;6.93;;;6.43;;
71655;SDS011;59497;48.798;8.816;2022-07-25T11:31:41;7.87;;;7.27;;
71655;SDS011;59497;48.798;8.816;2022-07-25T11:34:06;7.97;;;7.38;;
71655;SDS011;59497;48.798;8.816;2022-07-25T11:36:32;7.77;;;7.03;;
71655;SDS011;59497;48.798;8.816;2022-07-25T11:38:57;6.77;;;6.37;;
71655;SDS011;59497;48.798;8.816;2022-07-25T11:41:28;6.33;;;5.93;;
71655;SDS011;59497;48.798;8.816;2022-07-25T11:43:54;8.55;;;7.72;;
71655;SDS011;59497;48.798;8.816;2022-07-25T11:46:19;8.47;;;7.67;;
71655;SDS011;59497;48.798;8.816;2022-07-25T11:48:44;8.47;;;7.87;;
71655;SDS011;59497;48.798;8.816;2022-07-25T11:51:13;9.30;;;8.50;;
71655;SDS011;59497;48.798;8.816;2022-07-25T11:53:39;8.93;;;8.27;;
71655;SDS011;59497;48.798;8.816;2022-07-25T11:56:12;8.68;;;7.97;;
71655;SDS011;59497;48.798;8.816;2022-07-25T11:58:37;9.00;;;8.30;;
71655;SDS011;59497;48.798;8.816;2022-07-25T12:01:09;8.30;;;7.70;;
71655;SDS011;59497;48.798;8.816;2022-07-25T12:03:36;8.87;;;8.27;;
71655;SDS011;59497;48.798;8.816;2022-07-25T12:06:05;9.48;;;8.77;;
71655;SDS011;59497;48.798;8.816;2022-07-25T12:08:35;8.20;;;7.43;;
71655;SDS011;59497;48.798;8.816;2022-07-25T12:11:01;8.52;;;7.82;;
71655;SDS011;59497;48.798;8.816;2022-07-25T12:13:27;8.90;;;8.27;;
71655;SDS011;59497;48.798;8.816;2022-07-25T12:15:52;9.48;;;8.65;;
71655;SDS011;59497;48.798;8.816;2022-07-25T12:18:19;10.03;;;9.20;;
71655;SDS011;59497;48.798;8.816;2022-07-25T12:20:44;8.80;;;8.10;;
71655;SDS011;59497;48.798;8.816;2022-07-25T12:23:10;7.37;;;6.70;;
71655;SDS011;59497;48.798;8.816;2022-07-25T12:25:39;9.60;;;8.90;;
71655;SDS011;59497;48.798;8.816;2022-07-25T12:28:04;8.77;;;7.97;;
71655;SDS011;59497;48.798;8.816;2022-07-25T12:30:30;9.17;;;8.47;;
71655;SDS011;59497;48.798;8.816;2022-07-25T12:32:56;9.95;;;9.05;;
71655;SDS011;59497;48.798;8.816;2022-07-25T12:35:21;7.87;;;7.23;;
71655;SDS011;59497;48.798;8.816;2022-07-25T12:37:47;9.50;;;8.77;;
71655;SDS011;59497;48.798;8.816;2022-07-25T12:40:12;9.53;;;8.83;;
71655;SDS011;59497;48.798;8.816;2022-07-25T12:42:38;8.90;;;8.13;;
71655;SDS011;59497;48.798;8.816;2022-07-25T12:45:04;9.57;;;8.87;;
71655;SDS011;59497;48.798;8.816;2022-07-25T12:47:29;9.15;;;8.35;;
71655;SDS011;59497;48.798;8.816;2022-07-25T12:49:54;9.03;;;8.33;;
71655;SDS011;59497;48.798;8.816;2022-07-25T12:52:20;10.25;;;9.50;;
71655;SDS011;59497;48.798;8.816;2022-07-25T12:54:45;9.63;;;8.83;;
71655;SDS011;59497;48.798;8.816;2022-07-25T12:57:11;9.13;;;8.47;;
71655;SDS011;59497;48.798;8.816;2022-07-25T12:59:36;9.87;;;9.03;;
71655;SDS011;59497;48.798;8.816;2022-07-25T13:02:02;8.75;;;8.07;;
71655;SDS011;59497;48.798;8.816;2022-07-25T13:04:27;8.57;;;7.80;;
71655;SDS011;59497;48.798;8.816;2022-07-25T13:06:53;10.07;;;9.27;;
71655;SDS011;59497;48.798;8.816;2022-07-25T13:09:19;9.27;;;8.48;;
71655;SDS011;59497;48.798;8.816;2022-07-25T13:11:44;9.97;;;9.17;;
71655;SDS011;59497;48.798;8.816;2022-07-25T13:14:10;8.37;;;7.67;;
71655;SDS011;59497;48.798;8.816;2022-07-25T13:16:35;9.40;;;8.67;;
71655;SDS011;59497;48.798;8.816;2022-07-25T13:19:02;8.60;;;7.97;;
71655;SDS011;59497;48.798;8.816;2022-07-25T13:21:27;10.10;;;9.18;;
71655;SDS011;59497;48.798;8.816;2022-07-25T13:23:53;10.00;;;8.90;;
71655;SDS011;59497;48.798;8.816;2022-07-25T13:26:18;9.23;;;8.35;;
71655;SDS011;59497;48.798;8.816;2022-07-25T13:28:43;13.10;;;8.53;;
71655;SDS011;59497;48.798;8.816;2022-07-25T13:31:08;10.57;;;9.60;;
71655;SDS011;59497;48.798;8.816;2022-07-25T13:33:34;9.67;;;8.77;;
71655;SDS011;59497;48.798;8.816;2022-07-25T13:35:59;9.50;;;8.70;;
71655;SDS011;59497;48.798;8.816;2022-07-25T13:38:24;9.03;;;8.23;;
71655;SDS011;59497;48.798;8.816;2022-07-25T13:40:49;9.47;;;8.47;;
71655;SDS011;59497;48.798;8.816;2022-07-25T13:43:14;10.77;;;9.03;;
71655;SDS011;59497;48.798;8.816;2022-07-25T13:45:40;10.83;;;8.60;;
71655;SDS011;59497;48.798;8.816;2022-07-25T13:48:06;10.07;;;8.93;;
71655;SDS011;59497;48.798;8.816;2022-07-25T13:50:32;10.38;;;9.07;;
71655;SDS011;59497;48.798;8.816;2022-07-25T13:52:57;12.27;;;8.80;;
71655;SDS011;59497;48.798;8.816;2022-07-25T13:55:24;14.60;;;8.15;;
71655;SDS011;59497;48.798;8.816;2022-07-25T13:57:50;16.27;;;9.67;;
71655;SDS011;59497;48.798;8.816;2022-07-25T14:00:15;10.00;;;9.10;;
71655;SDS011;59497;48.798;8.816;2022-07-25T14:02:41;9.65;;;8.90;;
71655;SDS011;59497;48.798;8.816;2022-07-25T14:05:06;10.50;;;9.50;;
71655;SDS011;59497;48.798;8.816;2022-07-25T14:07:33;8.87;;;8.17;;
71655;SDS011;59497;48.798;8.816;2022-07-25T14:09:58;10.15;;;9.13;;
71655;SDS011;59497;48.798;8.816;2022-07-25T14:12:23;9.93;;;9.13;;
71655;SDS011;59497;48.798;8.816;2022-07-25T14:14:49;9.10;;;8.37;;
71655;SDS011;59497;48.798;8.816;2022-07-25T14:17:14;10.07;;;8.60;;
71655;SDS011;59497;48.798;8.816;2022-07-25T14:19:39;9.57;;;8.77;;
71655;SDS011;59497;48.798;8.816;2022-07-25T14:22:04;10.77;;;9.15;;
71655;SDS011;59497;48.798;8.816;2022-07-25T14:24:29;16.63;;;10.40;;
71655;SDS011;59497;48.798;8.816;2022-07-25T14:26:54;10.17;;;9.20;;
71655;SDS011;59497;48.798;8.816;2022-07-25T14:29:20;10.03;;;9.13;;
71655;SDS011;59497;48.798;8.816;2022-07-25T14:31:45;10.33;;;9.43;;
71655;SDS011;59497;48.798;8.816;2022-07-25T14:34:10;10.37;;;9.37;;
71655;SDS011;59497;48.798;8.816;2022-07-25T14:36:36;10.40;;;9.23;;
71655;SDS011;59497;48.798;8.816;2022-07-25T14:39:02;10.53;;;8.97;;
71655;SDS011;59497;48.798;8.816;2022-07-25T14:41:27;10.63;;;9.53;;
71655;SDS011;59497;48.798;8.816;2022-07-25T14:43:52;11.90;;;8.60;;
71655;SDS011;59497;48.798;8.816;2022-07-25T14:46:17;10.10;;;9.13;;